createdAt,value
2023-08-31T00:00:53.809Z,20.13
2023-08-31T00:01:53.737Z,20.08
2023-08-31T00:02:53.702Z,20.15
2023-08-31T00:03:53.750Z,20.13
2023-08-31T00:04:53.659Z,20.13
2023-08-31T00:05:53.527Z,20.18
2023-08-31T00:06:53.478Z,20.05
2023-08-31T00:07:53.426Z,20.16
2023-08-31T00:08:53.374Z,20.13
2023-08-31T00:09:53.328Z,20.16
2023-08-31T00:10:53.274Z,20.13
2023-08-31T00:11:53.222Z,20.09
2023-08-31T00:12:53.179Z,20.06
2023-08-31T00:13:53.131Z,20.16
2023-08-31T00:14:53.070Z,20.16
2023-08-31T00:15:53.055Z,20.13
2023-08-31T00:16:52.972Z,20.12
2023-08-31T00:17:52.975Z,20.08
2023-08-31T00:18:52.866Z,20.15
2023-08-31T00:19:52.822Z,20.12
2023-08-31T00:20:52.771Z,20.08
2023-08-31T00:21:52.717Z,20.10
2023-08-31T00:22:52.663Z,20.16
2023-08-31T00:23:52.608Z,20.18
2023-08-31T00:24:52.558Z,20.15
2023-08-31T00:25:52.512Z,20.12
2023-08-31T00:26:52.527Z,20.16
2023-08-31T00:27:52.413Z,20.06
2023-08-31T00:28:52.356Z,20.08
2023-08-31T00:29:52.429Z,20.03
2023-08-31T00:30:52.307Z,20.13
2023-08-31T00:31:52.212Z,20.02
2023-08-31T00:32:52.178Z,20.13
2023-08-31T00:33:52.100Z,20.10
2023-08-31T00:34:52.078Z,20.16
2023-08-31T00:35:52.004Z,20.12
2023-08-31T00:36:51.946Z,20.06
2023-08-31T00:37:51.897Z,20.13
2023-08-31T00:38:51.857Z,20.13
2023-08-31T00:39:51.810Z,20.13
2023-08-31T00:40:51.746Z,20.06
2023-08-31T00:41:51.700Z,20.09
2023-08-31T00:42:51.659Z,20.18
2023-08-31T00:43:51.599Z,20.09
2023-08-31T00:44:51.547Z,20.15
2023-08-31T00:45:51.519Z,20.06
2023-08-31T00:46:52.124Z,20.10
2023-08-31T00:47:51.447Z,20.10
2023-08-31T00:48:51.341Z,20.03
2023-08-31T00:49:51.290Z,20.10
2023-08-31T00:50:51.238Z,20.08
2023-08-31T00:51:51.192Z,20.06
2023-08-31T00:52:51.134Z,20.06
2023-08-31T00:53:51.098Z,20.05
2023-08-31T00:54:51.032Z,20.10
2023-08-31T00:55:50.986Z,20.08
2023-08-31T00:56:50.939Z,20.15
2023-08-31T00:57:50.886Z,20.05
2023-08-31T00:58:50.835Z,20.08
2023-08-31T00:59:50.780Z,20.09
2023-08-31T01:00:50.727Z,20.06
2023-08-31T01:01:50.755Z,20.08
2023-08-31T01:02:50.943Z,20.08
2023-08-31T01:03:50.655Z,20.12
2023-08-31T01:04:50.529Z,20.12
2023-08-31T01:05:50.477Z,20.12
2023-08-31T01:06:50.434Z,20.10
2023-08-31T01:07:50.374Z,20.15
2023-08-31T01:08:50.362Z,20.08
2023-08-31T01:09:50.275Z,20.12
2023-08-31T01:10:50.223Z,20.10
2023-08-31T01:11:50.183Z,20.06
2023-08-31T01:12:50.121Z,20.08
2023-08-31T01:13:50.077Z,20.08
2023-08-31T01:14:50.027Z,20.03
2023-08-31T01:15:49.968Z,20.10
2023-08-31T01:16:49.918Z,20.08
2023-08-31T01:17:49.931Z,20.03
2023-08-31T01:18:49.816Z,20.05
2023-08-31T01:19:49.798Z,20.10
2023-08-31T01:20:49.716Z,20.02
2023-08-31T01:21:49.671Z,20.13
2023-08-31T01:22:49.625Z,20.03
2023-08-31T01:23:49.562Z,20.15
2023-08-31T01:24:49.512Z,20.02
2023-08-31T01:25:49.478Z,20.03
2023-08-31T01:26:49.406Z,20.06
2023-08-31T01:27:49.355Z,20.12
2023-08-31T01:28:49.313Z,20.03
2023-08-31T01:29:49.263Z,20.00
2023-08-31T01:30:49.201Z,20.03
2023-08-31T01:31:49.173Z,20.10
2023-08-31T01:32:49.136Z,20.08
2023-08-31T01:33:49.061Z,20.03
2023-08-31T01:34:49.009Z,20.02
2023-08-31T01:35:48.950Z,20.05
2023-08-31T01:36:48.920Z,20.02
2023-08-31T01:37:48.853Z,20.10
2023-08-31T01:38:48.804Z,20.05
2023-08-31T01:39:48.750Z,20.02
2023-08-31T01:40:48.697Z,20.02
2023-08-31T01:41:48.648Z,20.05
2023-08-31T01:42:48.601Z,20.03
2023-08-31T01:43:48.551Z,20.09
2023-08-31T01:44:48.503Z,19.98
2023-08-31T01:45:48.465Z,20.02
2023-08-31T01:46:48.405Z,20.08
2023-08-31T01:47:48.376Z,20.08
2023-08-31T01:48:48.295Z,19.95
2023-08-31T01:49:48.253Z,20.00
2023-08-31T01:50:48.189Z,20.03
2023-08-31T01:51:48.130Z,20.00
2023-08-31T01:52:48.088Z,20.06
2023-08-31T01:53:48.032Z,20.00
2023-08-31T01:54:47.984Z,20.00
2023-08-31T01:55:47.935Z,19.97
2023-08-31T01:56:47.885Z,19.95
2023-08-31T01:57:47.832Z,19.95
2023-08-31T01:58:47.794Z,20.00
2023-08-31T01:59:47.728Z,19.94
2023-08-31T02:00:47.683Z,19.97
2023-08-31T02:01:47.631Z,19.93
2023-08-31T02:02:47.660Z,20.00
2023-08-31T02:03:47.535Z,19.95
2023-08-31T02:04:47.479Z,19.95
2023-08-31T02:05:47.433Z,20.05
2023-08-31T02:06:47.376Z,20.03
2023-08-31T02:07:47.326Z,20.00
2023-08-31T02:08:47.274Z,19.94
2023-08-31T02:09:47.227Z,19.98
2023-08-31T02:10:47.174Z,19.98
2023-08-31T02:11:48.519Z,19.97
2023-08-31T02:12:47.069Z,20.02
2023-08-31T02:13:47.020Z,19.93
2023-08-31T02:14:46.965Z,19.97
2023-08-31T02:15:46.948Z,19.97
2023-08-31T02:16:46.866Z,19.93
2023-08-31T02:17:46.814Z,20.03
2023-08-31T02:18:46.762Z,19.93
2023-08-31T02:19:46.720Z,19.94
2023-08-31T02:20:46.658Z,19.93
2023-08-31T02:21:46.616Z,20.03
2023-08-31T02:22:46.562Z,19.90
2023-08-31T02:23:46.511Z,19.95
2023-08-31T02:24:46.457Z,19.98
2023-08-31T02:25:46.408Z,19.98
2023-08-31T02:26:46.362Z,19.91
2023-08-31T02:27:46.302Z,19.90
2023-08-31T02:28:46.252Z,19.91
2023-08-31T02:29:46.208Z,19.93
2023-08-31T02:30:46.264Z,19.91
2023-08-31T02:31:46.105Z,19.94
2023-08-31T02:32:46.088Z,19.87
2023-08-31T02:33:45.999Z,19.93
2023-08-31T02:34:45.949Z,19.90
2023-08-31T02:35:45.900Z,19.90
2023-08-31T02:36:45.851Z,19.90
2023-08-31T02:37:45.806Z,19.94
2023-08-31T02:38:45.749Z,19.91
2023-08-31T02:39:50.672Z,19.90
2023-08-31T02:40:45.647Z,19.91
2023-08-31T02:41:45.607Z,19.90
2023-08-31T02:42:45.539Z,19.97
2023-08-31T02:43:45.491Z,19.94
2023-08-31T02:44:45.440Z,19.95
2023-08-31T02:45:45.391Z,19.95
2023-08-31T02:46:45.358Z,19.90
2023-08-31T02:47:45.400Z,19.94
2023-08-31T02:48:45.281Z,19.91
2023-08-31T02:49:45.181Z,19.91
2023-08-31T02:50:45.134Z,19.94
2023-08-31T02:51:45.082Z,19.94
2023-08-31T02:52:45.034Z,19.93
2023-08-31T02:53:44.985Z,19.91
2023-08-31T02:54:44.931Z,19.91
2023-08-31T02:55:44.886Z,19.93
2023-08-31T02:56:44.823Z,19.93
2023-08-31T02:57:44.782Z,19.93
2023-08-31T02:58:44.722Z,19.91
2023-08-31T02:59:44.669Z,19.88
2023-08-31T03:00:44.649Z,19.90
2023-08-31T03:01:44.594Z,19.95
2023-08-31T03:02:44.535Z,19.94
2023-08-31T03:03:44.468Z,19.90
2023-08-31T03:04:44.421Z,19.90
2023-08-31T03:05:44.369Z,19.87
2023-08-31T03:06:44.318Z,19.83
2023-08-31T03:07:44.284Z,19.95
2023-08-31T03:08:44.223Z,19.94
2023-08-31T03:09:44.172Z,19.88
2023-08-31T03:10:44.115Z,19.84
2023-08-31T03:11:44.061Z,19.91
2023-08-31T03:12:44.014Z,19.83
2023-08-31T03:13:43.957Z,19.91
2023-08-31T03:14:43.919Z,19.88
2023-08-31T03:15:43.860Z,19.84
2023-08-31T03:16:43.832Z,19.83
2023-08-31T03:17:43.805Z,19.86
2023-08-31T03:18:43.727Z,19.84
2023-08-31T03:19:43.665Z,19.87
2023-08-31T03:20:43.616Z,19.91
2023-08-31T03:21:43.555Z,19.79
2023-08-31T03:22:43.510Z,19.83
2023-08-31T03:23:43.453Z,19.87
2023-08-31T03:24:43.399Z,19.87
2023-08-31T03:25:43.383Z,19.79
2023-08-31T03:26:43.299Z,19.88
2023-08-31T03:27:43.246Z,19.83
2023-08-31T03:28:43.204Z,19.84
2023-08-31T03:29:43.147Z,19.90
2023-08-31T03:30:43.130Z,19.86
2023-08-31T03:31:43.054Z,19.80
2023-08-31T03:32:43.044Z,19.87
2023-08-31T03:33:42.941Z,19.83
2023-08-31T03:34:42.900Z,19.73
2023-08-31T03:35:42.852Z,19.83
2023-08-31T03:36:42.788Z,19.88
2023-08-31T03:37:42.739Z,19.80
2023-08-31T03:38:42.692Z,19.80
2023-08-31T03:39:42.654Z,19.88
2023-08-31T03:40:42.587Z,19.87
2023-08-31T03:41:42.543Z,19.80
2023-08-31T03:42:42.483Z,19.80
2023-08-31T03:43:42.443Z,19.84
2023-08-31T03:44:42.388Z,19.80
2023-08-31T03:45:42.336Z,19.84
2023-08-31T03:46:42.306Z,19.80
2023-08-31T03:47:42.271Z,19.79
2023-08-31T03:48:42.179Z,19.80
2023-08-31T03:49:42.127Z,19.80
2023-08-31T03:50:42.078Z,19.73
2023-08-31T03:51:42.028Z,19.78
2023-08-31T03:52:41.976Z,19.79
2023-08-31T03:53:41.920Z,19.79
2023-08-31T03:54:41.883Z,19.76
2023-08-31T03:55:41.823Z,19.76
2023-08-31T03:56:41.772Z,19.75
2023-08-31T03:57:41.831Z,19.76
2023-08-31T03:58:41.666Z,19.87
2023-08-31T03:59:41.619Z,19.76
2023-08-31T04:00:41.583Z,19.73
2023-08-31T04:01:41.596Z,19.75
2023-08-31T04:02:41.513Z,19.78
2023-08-31T04:03:41.448Z,19.78
2023-08-31T04:04:41.360Z,19.75
2023-08-31T04:05:41.309Z,19.78
2023-08-31T04:06:41.259Z,19.73
2023-08-31T04:07:41.213Z,19.79
2023-08-31T04:08:41.151Z,19.75
2023-08-31T04:09:41.127Z,19.75
2023-08-31T04:10:41.050Z,19.78
2023-08-31T04:11:40.999Z,19.76
2023-08-31T04:12:40.946Z,19.78
2023-08-31T04:13:40.997Z,19.73
2023-08-31T04:14:40.844Z,19.78
2023-08-31T04:15:40.815Z,19.73
2023-08-31T04:16:40.747Z,19.76
2023-08-31T04:17:40.724Z,19.75
2023-08-31T04:18:40.690Z,19.70
2023-08-31T04:19:40.586Z,19.78
2023-08-31T04:20:40.567Z,19.75
2023-08-31T04:21:40.492Z,19.83
2023-08-31T04:22:40.443Z,19.70
2023-08-31T04:23:40.388Z,19.68
2023-08-31T04:24:40.360Z,19.79
2023-08-31T04:25:40.286Z,19.69
2023-08-31T04:26:41.163Z,19.75
2023-08-31T04:27:40.184Z,19.78
2023-08-31T04:28:40.143Z,19.80
2023-08-31T04:29:40.182Z,19.80
2023-08-31T04:30:40.032Z,19.68
2023-08-31T04:31:39.996Z,19.79
2023-08-31T04:32:39.966Z,19.68
2023-08-31T04:33:39.893Z,19.78
2023-08-31T04:34:39.834Z,19.76
2023-08-31T04:35:39.781Z,19.76
2023-08-31T04:36:39.753Z,19.69
2023-08-31T04:37:39.688Z,19.73
2023-08-31T04:38:39.622Z,19.70
2023-08-31T04:39:39.574Z,19.73
2023-08-31T04:40:39.528Z,19.70
2023-08-31T04:41:39.470Z,19.73
2023-08-31T04:42:39.420Z,19.69
2023-08-31T04:43:39.368Z,19.75
2023-08-31T04:44:39.320Z,19.73
2023-08-31T04:45:39.322Z,19.68
2023-08-31T04:46:39.216Z,19.70
2023-08-31T04:47:39.201Z,19.70
2023-08-31T04:48:39.116Z,19.73
2023-08-31T04:49:39.071Z,19.69
2023-08-31T04:50:39.013Z,19.69
2023-08-31T04:51:39.506Z,19.70
2023-08-31T04:52:38.910Z,19.68
2023-08-31T04:53:38.870Z,19.72
2023-08-31T04:54:38.810Z,19.66
2023-08-31T04:55:38.767Z,19.70
2023-08-31T04:56:38.716Z,19.69
2023-08-31T04:57:38.651Z,19.75
2023-08-31T04:58:59.689Z,19.75
2023-08-31T04:59:38.551Z,19.72
2023-08-31T05:00:43.203Z,19.70
2023-08-31T05:01:38.452Z,19.70
2023-08-31T05:02:38.444Z,19.75
2023-08-31T05:03:38.360Z,19.73
2023-08-31T05:04:38.292Z,19.68
2023-08-31T05:05:45.227Z,19.70
2023-08-31T05:06:38.190Z,19.66
2023-08-31T05:07:38.143Z,19.72
2023-08-31T05:08:40.679Z,19.78
2023-08-31T05:09:38.036Z,19.70
2023-08-31T05:10:37.992Z,19.73
2023-08-31T05:11:37.932Z,19.72
2023-08-31T05:12:37.889Z,19.72
2023-08-31T05:13:37.830Z,19.73
2023-08-31T05:14:37.778Z,19.73
2023-08-31T05:15:37.735Z,19.69
2023-08-31T05:16:37.712Z,19.70
2023-08-31T05:17:37.692Z,19.68
2023-08-31T05:18:37.578Z,19.70
2023-08-31T05:19:37.523Z,19.66
2023-08-31T05:20:37.480Z,19.73
2023-08-31T05:21:37.428Z,19.70
2023-08-31T05:22:37.376Z,19.70
2023-08-31T05:23:38.180Z,19.68
2023-08-31T05:24:38.172Z,19.73
2023-08-31T05:25:37.223Z,19.69
2023-08-31T05:26:37.170Z,19.65
2023-08-31T05:27:37.123Z,19.66
2023-08-31T05:28:37.067Z,19.69
2023-08-31T05:29:37.015Z,19.63
2023-08-31T05:30:37.010Z,19.70
2023-08-31T05:31:36.916Z,19.68
2023-08-31T05:32:36.910Z,19.63
2023-08-31T05:33:36.811Z,19.65
2023-08-31T05:34:36.760Z,19.70
2023-08-31T05:35:36.709Z,19.66
2023-08-31T05:36:36.658Z,19.65
2023-08-31T05:37:36.783Z,19.66
2023-08-31T05:38:36.555Z,19.69
2023-08-31T05:39:36.507Z,19.69
2023-08-31T05:40:36.457Z,19.66
2023-08-31T05:41:36.444Z,19.75
2023-08-31T05:42:36.365Z,19.68
2023-08-31T05:43:36.300Z,19.68
2023-08-31T05:44:36.249Z,19.65
2023-08-31T05:45:36.196Z,19.65
2023-08-31T05:46:36.186Z,19.63
2023-08-31T05:47:36.140Z,19.70
2023-08-31T05:48:36.068Z,19.68
2023-08-31T05:49:36.011Z,19.63
2023-08-31T05:50:35.953Z,19.65
2023-08-31T05:51:35.900Z,19.66
2023-08-31T05:52:35.840Z,19.63
2023-08-31T05:53:35.820Z,19.60
2023-08-31T05:54:35.736Z,19.65
2023-08-31T05:55:35.690Z,19.68
2023-08-31T05:56:35.637Z,19.68
2023-08-31T05:57:35.586Z,19.61
2023-08-31T05:58:35.537Z,19.66
2023-08-31T05:59:35.478Z,19.63
2023-08-31T06:00:35.448Z,19.65
2023-08-31T06:01:35.419Z,19.66
2023-08-31T06:02:35.371Z,19.66
2023-08-31T06:03:35.331Z,19.61
2023-08-31T06:04:35.326Z,19.53
2023-08-31T06:05:35.174Z,19.68
2023-08-31T06:06:35.120Z,19.65
2023-08-31T06:07:35.065Z,19.65
2023-08-31T06:08:35.021Z,19.68
2023-08-31T06:09:34.967Z,19.63
2023-08-31T06:10:34.915Z,19.66
2023-08-31T06:11:34.862Z,19.51
2023-08-31T06:12:34.812Z,19.69
2023-08-31T06:13:34.780Z,19.66
2023-08-31T06:14:34.714Z,19.65
2023-08-31T06:15:34.679Z,19.65
2023-08-31T06:16:34.669Z,19.58
2023-08-31T06:17:34.570Z,19.53
2023-08-31T06:18:34.519Z,19.54
2023-08-31T06:19:34.455Z,19.68
2023-08-31T06:20:34.523Z,19.61
2023-08-31T06:21:34.364Z,19.65
2023-08-31T06:22:34.308Z,19.50
2023-08-31T06:23:34.253Z,19.63
2023-08-31T06:24:34.206Z,19.65
2023-08-31T06:25:34.149Z,19.63
2023-08-31T06:26:34.104Z,19.57
2023-08-31T06:27:34.049Z,19.54
2023-08-31T06:28:33.998Z,19.55
2023-08-31T06:29:33.943Z,19.54
2023-08-31T06:30:33.894Z,19.66
2023-08-31T06:31:33.868Z,19.60
2023-08-31T06:32:33.829Z,19.61
2023-08-31T06:33:33.789Z,19.51
2023-08-31T06:34:33.688Z,19.63
2023-08-31T06:35:33.632Z,19.65
2023-08-31T06:36:33.589Z,19.57
2023-08-31T06:37:33.535Z,19.54
2023-08-31T06:38:33.483Z,19.63
2023-08-31T06:39:33.433Z,19.60
2023-08-31T06:40:33.379Z,19.68
2023-08-31T06:41:33.328Z,19.68
2023-08-31T06:42:33.280Z,19.65
2023-08-31T06:43:33.243Z,19.54
2023-08-31T06:44:33.211Z,19.65
2023-08-31T06:45:33.125Z,19.47
2023-08-31T06:46:33.104Z,19.51
2023-08-31T06:47:33.040Z,19.63
2023-08-31T06:48:32.975Z,19.61
2023-08-31T06:49:32.929Z,19.65
2023-08-31T06:50:32.874Z,19.66
2023-08-31T06:51:32.822Z,19.53
2023-08-31T06:52:33.127Z,19.61
2023-08-31T06:53:32.719Z,19.63
2023-08-31T06:54:32.667Z,19.54
2023-08-31T06:55:32.612Z,19.57
2023-08-31T06:56:32.563Z,19.65
2023-08-31T06:57:32.512Z,19.58
2023-08-31T06:58:32.461Z,19.51
2023-08-31T06:59:32.406Z,19.54
2023-08-31T07:00:32.361Z,19.53
2023-08-31T07:01:32.326Z,19.57
2023-08-31T07:02:32.345Z,19.63
2023-08-31T07:03:32.325Z,19.55
2023-08-31T07:04:32.154Z,19.65
2023-08-31T07:05:32.104Z,19.50
2023-08-31T07:06:32.052Z,19.54
2023-08-31T07:07:31.997Z,19.66
2023-08-31T07:08:32.038Z,19.54
2023-08-31T07:09:31.891Z,19.68
2023-08-31T07:10:31.852Z,19.65
2023-08-31T07:11:31.799Z,19.50
2023-08-31T07:12:31.743Z,19.57
2023-08-31T07:13:31.693Z,19.60
2023-08-31T07:14:31.639Z,19.50
2023-08-31T07:15:32.964Z,19.66
2023-08-31T07:16:31.543Z,19.60
2023-08-31T07:17:31.497Z,19.65
2023-08-31T07:18:31.485Z,19.60
2023-08-31T07:19:31.390Z,19.68
2023-08-31T07:20:31.375Z,19.60
2023-08-31T07:21:31.284Z,19.68
2023-08-31T07:22:31.234Z,19.63
2023-08-31T07:23:31.194Z,19.53
2023-08-31T07:24:31.233Z,19.66
2023-08-31T07:25:31.082Z,19.60
2023-08-31T07:26:31.033Z,19.65
2023-08-31T07:27:30.974Z,19.57
2023-08-31T07:28:30.928Z,19.63
2023-08-31T07:29:30.877Z,19.65
2023-08-31T07:30:30.829Z,19.63
2023-08-31T07:31:30.784Z,19.66
2023-08-31T07:32:30.722Z,19.66
2023-08-31T07:33:31.727Z,19.60
2023-08-31T07:34:30.616Z,19.61
2023-08-31T07:35:30.573Z,19.57
2023-08-31T07:36:30.512Z,19.65
2023-08-31T07:37:30.460Z,19.60
2023-08-31T07:38:30.412Z,19.65
2023-08-31T07:39:30.356Z,19.51
2023-08-31T07:40:30.330Z,19.63
2023-08-31T07:41:30.257Z,19.66
2023-08-31T07:42:30.328Z,19.53
2023-08-31T07:43:30.171Z,19.66
2023-08-31T07:44:30.129Z,19.63
2023-08-31T07:45:30.053Z,19.57
2023-08-31T07:46:30.028Z,19.61
2023-08-31T07:47:30.339Z,19.65
2023-08-31T07:48:29.905Z,19.66
2023-08-31T07:49:29.852Z,19.63
2023-08-31T07:50:29.803Z,19.68
2023-08-31T07:51:29.748Z,19.65
2023-08-31T07:52:29.694Z,19.69
2023-08-31T07:53:30.702Z,19.65
2023-08-31T07:54:29.595Z,19.65
2023-08-31T07:55:29.544Z,19.69
2023-08-31T07:56:29.508Z,19.68
2023-08-31T07:57:29.444Z,19.70
2023-08-31T07:58:29.402Z,19.68
2023-08-31T07:59:29.346Z,19.66
2023-08-31T08:00:29.299Z,19.63
2023-08-31T08:01:29.311Z,19.63
2023-08-31T08:02:29.239Z,19.63
2023-08-31T08:03:29.215Z,19.68
2023-08-31T08:04:29.082Z,19.65
2023-08-31T08:05:29.036Z,19.66
2023-08-31T08:06:28.979Z,19.70
2023-08-31T08:07:29.481Z,19.68
2023-08-31T08:08:28.878Z,19.68
2023-08-31T08:09:28.827Z,19.66
2023-08-31T08:10:28.777Z,19.68
2023-08-31T08:11:28.724Z,19.69
2023-08-31T08:12:28.725Z,19.66
2023-08-31T08:13:28.625Z,19.68
2023-08-31T08:14:28.566Z,19.68
2023-08-31T08:15:28.513Z,19.69
2023-08-31T08:16:28.491Z,19.70
2023-08-31T08:17:28.476Z,19.70
2023-08-31T08:18:28.364Z,19.65
2023-08-31T08:19:28.332Z,19.68
2023-08-31T08:20:28.267Z,19.70
2023-08-31T08:21:28.205Z,19.68
2023-08-31T08:22:28.165Z,19.69
2023-08-31T08:23:28.104Z,19.68
2023-08-31T08:24:28.675Z,19.68
2023-08-31T08:25:28.006Z,19.69
2023-08-31T08:26:27.952Z,19.73
2023-08-31T08:27:27.902Z,19.66
2023-08-31T08:28:27.861Z,19.66
2023-08-31T08:29:27.796Z,19.70
2023-08-31T08:30:27.755Z,19.72
2023-08-31T08:31:27.725Z,19.68
2023-08-31T08:32:27.676Z,19.76
2023-08-31T08:33:27.590Z,19.66
2023-08-31T08:34:27.541Z,19.70
2023-08-31T08:35:27.497Z,19.72
2023-08-31T08:36:27.438Z,19.69
2023-08-31T08:37:27.394Z,19.69
2023-08-31T08:38:27.343Z,19.70
2023-08-31T08:39:27.290Z,19.73
2023-08-31T08:40:27.241Z,19.69
2023-08-31T08:41:27.234Z,19.69
2023-08-31T08:42:27.150Z,19.72
2023-08-31T08:43:27.100Z,19.72
2023-08-31T08:44:27.118Z,19.69
2023-08-31T08:45:37.761Z,19.69
2023-08-31T08:46:27.040Z,19.72
2023-08-31T08:47:26.910Z,19.70
2023-08-31T08:48:26.829Z,19.73
2023-08-31T08:49:26.776Z,19.72
2023-08-31T08:50:26.729Z,19.72
2023-08-31T08:51:26.733Z,19.72
2023-08-31T08:52:26.626Z,19.73
2023-08-31T08:53:26.581Z,19.72
2023-08-31T08:54:26.523Z,19.69
2023-08-31T08:55:26.468Z,19.72
2023-08-31T08:56:26.420Z,19.70
2023-08-31T08:57:26.382Z,19.70
2023-08-31T08:58:26.318Z,19.72
2023-08-31T08:59:26.266Z,19.70
2023-08-31T09:00:26.235Z,19.73
2023-08-31T09:01:26.292Z,19.63
2023-08-31T09:02:26.159Z,19.70
2023-08-31T09:03:26.057Z,19.65
2023-08-31T09:04:26.007Z,19.69
2023-08-31T09:05:26.161Z,19.73
2023-08-31T09:06:25.912Z,19.75
2023-08-31T09:07:25.872Z,19.70
2023-08-31T09:08:25.804Z,19.69
2023-08-31T09:09:25.753Z,19.70
2023-08-31T09:10:25.703Z,19.73
2023-08-31T09:11:25.672Z,19.69
2023-08-31T09:12:25.629Z,19.70
2023-08-31T09:13:25.548Z,19.72
2023-08-31T09:14:25.505Z,19.73
2023-08-31T09:15:25.452Z,19.70
2023-08-31T09:16:25.536Z,19.72
2023-08-31T09:17:25.393Z,19.75
2023-08-31T09:18:25.322Z,19.66
2023-08-31T09:19:25.239Z,19.68
2023-08-31T09:20:25.189Z,19.73
2023-08-31T09:21:25.138Z,19.73
2023-08-31T09:22:25.105Z,19.69
2023-08-31T09:23:25.047Z,19.69
2023-08-31T09:24:24.995Z,19.72
2023-08-31T09:25:24.935Z,19.69
2023-08-31T09:26:25.673Z,19.69
2023-08-31T09:27:24.832Z,19.73
2023-08-31T09:28:24.797Z,19.66
2023-08-31T09:29:24.728Z,19.78
2023-08-31T09:30:24.677Z,19.70
2023-08-31T09:31:24.654Z,19.76
2023-08-31T09:32:24.580Z,19.68
2023-08-31T09:33:24.522Z,19.69
2023-08-31T09:34:24.469Z,19.70
2023-08-31T09:35:26.106Z,19.72
2023-08-31T09:36:24.393Z,19.78
2023-08-31T09:37:24.318Z,19.68
2023-08-31T09:38:24.264Z,19.70
2023-08-31T09:39:24.211Z,19.66
2023-08-31T09:40:24.165Z,19.73
2023-08-31T09:41:24.125Z,19.72
2023-08-31T09:42:24.064Z,19.73
2023-08-31T09:43:24.024Z,19.73
2023-08-31T09:44:23.968Z,19.75
2023-08-31T09:45:32.305Z,19.69
2023-08-31T09:46:23.920Z,19.68
2023-08-31T09:47:23.817Z,19.68
2023-08-31T09:48:23.829Z,19.76
2023-08-31T09:49:23.729Z,19.68
2023-08-31T09:50:23.657Z,19.75
2023-08-31T09:51:23.602Z,19.63
2023-08-31T09:52:23.551Z,19.75
2023-08-31T09:53:23.513Z,19.70
2023-08-31T09:54:23.455Z,19.73
2023-08-31T09:55:23.404Z,19.68
2023-08-31T09:56:23.348Z,19.68
2023-08-31T09:57:36.098Z,19.76
2023-08-31T09:58:23.292Z,19.69
2023-08-31T09:59:23.196Z,19.73
2023-08-31T10:00:23.148Z,19.68
2023-08-31T10:01:29.306Z,19.72
2023-08-31T10:02:23.096Z,19.69
2023-08-31T10:03:23.049Z,19.72
2023-08-31T10:04:22.948Z,19.70
2023-08-31T10:05:23.445Z,19.69
2023-08-31T10:06:22.842Z,19.70
2023-08-31T10:07:22.788Z,19.69
2023-08-31T10:08:22.738Z,19.68
2023-08-31T10:09:22.685Z,19.78
2023-08-31T10:10:22.642Z,19.79
2023-08-31T10:11:22.587Z,19.68
2023-08-31T10:12:22.533Z,19.70
2023-08-31T10:13:22.483Z,19.78
2023-08-31T10:14:22.422Z,19.70
2023-08-31T10:15:22.375Z,19.65
2023-08-31T10:16:22.359Z,19.76
2023-08-31T10:17:22.271Z,19.73
2023-08-31T10:18:22.219Z,19.66
2023-08-31T10:19:22.170Z,19.69
2023-08-31T10:20:22.129Z,19.78
2023-08-31T10:21:22.111Z,19.70
2023-08-31T10:22:22.024Z,19.78
2023-08-31T10:23:21.972Z,19.76
2023-08-31T10:24:21.913Z,19.73
2023-08-31T10:25:21.870Z,19.75
2023-08-31T10:26:21.816Z,19.66
2023-08-31T10:27:21.763Z,19.69
2023-08-31T10:28:21.710Z,19.70
2023-08-31T10:29:21.659Z,19.66
2023-08-31T10:30:21.608Z,19.76
2023-08-31T10:31:21.678Z,19.78
2023-08-31T10:32:21.504Z,19.69
2023-08-31T10:33:21.457Z,19.78
2023-08-31T10:34:21.408Z,19.76
2023-08-31T10:35:21.356Z,19.75
2023-08-31T10:36:21.351Z,19.73
2023-08-31T10:37:21.255Z,19.72
2023-08-31T10:38:21.203Z,19.83
2023-08-31T10:39:21.149Z,19.69
2023-08-31T10:40:21.106Z,19.75
2023-08-31T10:41:21.052Z,19.84
2023-08-31T10:42:20.999Z,19.76
2023-08-31T10:43:20.944Z,19.73
2023-08-31T10:44:20.897Z,19.73
2023-08-31T10:45:20.851Z,19.68
2023-08-31T10:46:20.855Z,19.72
2023-08-31T10:47:20.738Z,19.83
2023-08-31T10:48:20.696Z,19.84
2023-08-31T10:49:20.683Z,19.76
2023-08-31T10:50:20.605Z,19.73
2023-08-31T10:51:20.537Z,19.72
2023-08-31T10:52:32.567Z,19.75
2023-08-31T10:53:20.433Z,19.72
2023-08-31T10:54:20.386Z,19.83
2023-08-31T10:55:20.326Z,19.73
2023-08-31T10:56:20.272Z,19.72
2023-08-31T10:57:20.226Z,19.76
2023-08-31T10:58:20.173Z,19.76
2023-08-31T10:59:20.130Z,19.76
2023-08-31T11:00:20.068Z,19.84
2023-08-31T11:01:20.056Z,19.76
2023-08-31T11:02:19.989Z,19.76
2023-08-31T11:03:19.964Z,19.78
2023-08-31T11:04:19.969Z,19.76
2023-08-31T11:05:22.159Z,19.75
2023-08-31T11:06:19.770Z,19.76
2023-08-31T11:07:19.747Z,19.68
2023-08-31T11:08:19.672Z,19.73
2023-08-31T11:09:19.637Z,19.80
2023-08-31T11:10:19.576Z,19.73
2023-08-31T11:11:19.512Z,19.84
2023-08-31T11:12:19.462Z,19.84
2023-08-31T11:13:19.409Z,19.75
2023-08-31T11:14:19.399Z,19.73
2023-08-31T11:15:19.313Z,19.72
2023-08-31T11:16:19.337Z,19.76
2023-08-31T11:17:19.200Z,19.76
2023-08-31T11:18:19.148Z,19.80
2023-08-31T11:19:19.100Z,19.75
2023-08-31T11:20:19.064Z,19.76
2023-08-31T11:21:19.005Z,19.75
2023-08-31T11:22:18.947Z,19.73
2023-08-31T11:23:18.941Z,19.84
2023-08-31T11:24:19.869Z,19.75
2023-08-31T11:25:18.921Z,19.75
2023-08-31T11:26:18.749Z,19.78
2023-08-31T11:27:18.693Z,19.75
2023-08-31T11:28:18.645Z,19.73
2023-08-31T11:29:18.591Z,19.72
2023-08-31T11:30:18.541Z,19.78
2023-08-31T11:31:18.504Z,19.79
2023-08-31T11:32:18.445Z,19.78
2023-08-31T11:33:18.407Z,19.76
2023-08-31T11:34:18.337Z,19.80
2023-08-31T11:35:18.282Z,19.83
2023-08-31T11:36:18.243Z,19.79
2023-08-31T11:37:18.190Z,19.76
2023-08-31T11:38:18.131Z,19.86
2023-08-31T11:39:18.084Z,19.75
2023-08-31T11:40:18.086Z,19.80
2023-08-31T11:41:17.988Z,19.80
2023-08-31T11:42:17.931Z,19.79
2023-08-31T11:43:17.877Z,19.79
2023-08-31T11:44:17.826Z,19.84
2023-08-31T11:45:17.880Z,19.86
2023-08-31T11:46:17.759Z,19.86
2023-08-31T11:47:17.675Z,19.93
2023-08-31T11:48:17.648Z,19.80
2023-08-31T11:49:17.579Z,19.83
2023-08-31T11:50:17.527Z,19.80
2023-08-31T11:51:17.482Z,19.91
2023-08-31T11:52:17.427Z,19.76
2023-08-31T11:53:17.370Z,19.84
2023-08-31T11:54:17.315Z,19.84
2023-08-31T11:55:17.312Z,19.87
2023-08-31T11:56:17.338Z,19.86
2023-08-31T11:57:17.159Z,19.84
2023-08-31T11:58:17.119Z,19.86
2023-08-31T11:59:17.061Z,19.87
2023-08-31T12:00:17.010Z,19.87
2023-08-31T12:01:16.976Z,19.91
2023-08-31T12:02:17.226Z,19.87
2023-08-31T12:03:52.828Z,19.88
2023-08-31T12:04:16.861Z,19.94
2023-08-31T12:05:16.760Z,19.84
2023-08-31T12:06:16.706Z,19.84
2023-08-31T12:07:16.651Z,19.93
2023-08-31T12:08:16.602Z,19.83
2023-08-31T12:09:16.548Z,19.90
2023-08-31T12:10:16.517Z,19.91
2023-08-31T12:11:16.447Z,19.95
2023-08-31T12:12:16.433Z,19.93
2023-08-31T12:13:16.675Z,19.90
2023-08-31T12:14:16.295Z,19.91
2023-08-31T12:15:16.240Z,19.91
2023-08-31T12:16:16.211Z,19.91
2023-08-31T12:17:16.142Z,19.93
2023-08-31T12:18:16.106Z,19.91
2023-08-31T12:19:16.042Z,19.90
2023-08-31T12:20:15.994Z,19.93
2023-08-31T12:21:15.948Z,19.93
2023-08-31T12:22:15.893Z,19.90
2023-08-31T12:23:15.833Z,19.93
2023-08-31T12:24:15.783Z,19.88
2023-08-31T12:25:15.733Z,19.94
2023-08-31T12:26:15.683Z,19.95
2023-08-31T12:27:15.626Z,19.90
2023-08-31T12:28:15.714Z,19.95
2023-08-31T12:29:15.532Z,19.88
2023-08-31T12:30:15.492Z,19.88
2023-08-31T12:31:15.438Z,19.91
2023-08-31T12:32:15.376Z,19.91
2023-08-31T12:33:15.328Z,19.93
2023-08-31T12:34:15.277Z,19.93
2023-08-31T12:35:15.223Z,19.87
2023-08-31T12:36:15.173Z,19.88
2023-08-31T12:37:15.117Z,19.98
2023-08-31T12:38:15.068Z,19.90
2023-08-31T12:39:15.018Z,19.93
2023-08-31T12:40:14.969Z,19.90
2023-08-31T12:41:14.914Z,19.90
2023-08-31T12:42:23.287Z,19.90
2023-08-31T12:43:14.823Z,19.97
2023-08-31T12:44:14.860Z,19.93
2023-08-31T12:45:14.710Z,19.90
2023-08-31T12:46:14.787Z,19.93
2023-08-31T12:47:14.609Z,20.00
2023-08-31T12:48:14.693Z,19.90
2023-08-31T12:49:14.532Z,19.93
2023-08-31T12:50:14.453Z,19.97
2023-08-31T12:51:14.405Z,19.90
2023-08-31T12:52:14.358Z,19.94